Time;durP1;ratioP1;P1;durP2;ratioP2;P2;SDS_P1;SDS_P2;PMS_P1;PMS_P2;Temp;Humidity;BMP_temperature;BMP_pressure;BME280_temperature;BME280_humidity;BME280_pressure;Samples;Min_cycle;Max_cycle;Signal;HPM_P1;HPM_P2
2021/02/10 00:00:53;;;;;;;5.63;4.73;;;;;;;18.26;41.88;99253.87;;;;-50
2021/02/10 00:03:54;;;;;;;5.19;4.60;;;;;;;18.22;41.90;99247.45;;;;-50
2021/02/10 00:06:54;;;;;;;5.41;4.70;;;;;;;18.20;41.88;99245.19;;;;-52
2021/02/10 00:09:54;;;;;;;5.37;4.46;;;;;;;18.17;41.96;99237.83;;;;-47
2021/02/10 00:12:54;;;;;;;4.97;4.47;;;;;;;18.15;41.98;99236.30;;;;-50
2021/02/10 00:15:54;;;;;;;5.00;4.48;;;;;;;18.12;42.00;99232.03;;;;-50
2021/02/10 00:18:54;;;;;;;5.23;4.71;;;;;;;18.09;41.97;99228.80;;;;-49
2021/02/10 00:21:54;;;;;;;5.63;4.80;;;;;;;18.07;42.00;99227.04;;;;-47
2021/02/10 00:24:54;;;;;;;6.13;5.00;;;;;;;18.05;41.91;99223.40;;;;-49
2021/02/10 00:27:54;;;;;;;5.35;4.65;;;;;;;18.03;41.90;99216.79;;;;-47
2021/02/10 00:30:54;;;;;;;5.27;4.71;;;;;;;17.99;41.98;99212.42;;;;-47
2021/02/10 00:33:54;;;;;;;5.19;4.69;;;;;;;17.98;41.89;99201.97;;;;-47
2021/02/10 00:36:54;;;;;;;5.53;4.63;;;;;;;17.96;41.91;99195.11;;;;-47
2021/02/10 00:39:54;;;;;;;5.27;4.65;;;;;;;17.94;41.86;99197.64;;;;-47
2021/02/10 00:42:54;;;;;;;5.75;4.97;;;;;;;17.92;42.07;99196.19;;;;-47
2021/02/10 00:45:54;;;;;;;5.28;4.78;;;;;;;17.90;41.86;99191.02;;;;-49
2021/02/10 00:48:53;;;;;;;6.11;5.00;;;;;;;17.88;41.84;99193.63;;;;-49
2021/02/10 00:51:54;;;;;;;5.12;4.59;;;;;;;17.86;41.89;99194.13;;;;-47
2021/02/10 00:54:54;;;;;;;5.23;4.70;;;;;;;17.84;41.93;99191.55;;;;-50
2021/02/10 00:57:53;;;;;;;5.15;4.52;;;;;;;17.81;42.09;99186.60;;;;-52
2021/02/10 01:00:54;;;;;;;5.72;5.01;;;;;;;17.80;41.87;99185.55;;;;-50
2021/02/10 01:03:54;;;;;;;6.49;4.89;;;;;;;17.78;41.86;99188.31;;;;-50
2021/02/10 01:06:53;;;;;;;5.51;4.83;;;;;;;17.76;41.88;99182.66;;;;-50
2021/02/10 01:09:54;;;;;;;5.32;4.70;;;;;;;17.74;42.01;99178.70;;;;-52
2021/02/10 01:12:54;;;;;;;5.53;4.95;;;;;;;17.72;41.82;99177.36;;;;-52
2021/02/10 01:15:54;;;;;;;5.28;4.78;;;;;;;17.69;42.00;99174.77;;;;-53
2021/02/10 01:18:54;;;;;;;5.48;4.81;;;;;;;17.68;41.97;99173.58;;;;-50
2021/02/10 01:21:53;;;;;;;5.41;4.87;;;;;;;17.65;41.89;99174.06;;;;-50
2021/02/10 01:24:54;;;;;;;5.14;4.62;;;;;;;17.64;41.95;99183.66;;;;-52
2021/02/10 01:27:54;;;;;;;5.54;4.79;;;;;;;17.62;41.82;99184.97;;;;-47
2021/02/10 01:30:53;;;;;;;5.62;4.81;;;;;;;17.60;41.97;99183.99;;;;-50
2021/02/10 01:33:54;;;;;;;5.33;4.74;;;;;;;17.60;41.90;99184.87;;;;-52
2021/02/10 01:36:54;;;;;;;6.04;5.11;;;;;;;17.57;41.81;99184.25;;;;-52
2021/02/10 01:39:53;;;;;;;5.54;4.95;;;;;;;17.55;41.80;99184.99;;;;-50
2021/02/10 01:42:54;;;;;;;5.96;5.00;;;;;;;17.52;41.86;99181.38;;;;-50
2021/02/10 01:45:54;;;;;;;5.68;5.10;;;;;;;17.51;41.82;99181.29;;;;-50
2021/02/10 01:48:54;;;;;;;5.59;4.97;;;;;;;17.50;41.72;99185.52;;;;-52
2021/02/10 01:51:54;;;;;;;5.32;4.67;;;;;;;17.47;41.86;99187.97;;;;-52
2021/02/10 01:54:53;;;;;;;5.97;4.99;;;;;;;17.45;41.87;99185.37;;;;-52
2021/02/10 01:57:54;;;;;;;5.58;5.02;;;;;;;17.44;41.86;99186.68;;;;-47
2021/02/10 02:00:54;;;;;;;5.43;4.93;;;;;;;17.42;41.87;99178.03;;;;-49
2021/02/10 02:03:53;;;;;;;5.66;5.05;;;;;;;17.40;41.65;99180.70;;;;-49
2021/02/10 02:06:54;;;;;;;5.64;4.99;;;;;;;17.39;41.83;99174.41;;;;-49
2021/02/10 02:09:54;;;;;;;5.26;4.68;;;;;;;17.37;41.84;99163.39;;;;-49
2021/02/10 02:12:53;;;;;;;5.84;5.23;;;;;;;17.35;41.93;99161.15;;;;-52
2021/02/10 02:15:54;;;;;;;5.32;4.82;;;;;;;17.33;41.85;99154.98;;;;-52
2021/02/10 02:18:54;;;;;;;5.48;4.87;;;;;;;17.31;41.85;99150.57;;;;-52
2021/02/10 02:21:53;;;;;;;5.59;4.93;;;;;;;17.29;41.77;99145.97;;;;-53
2021/02/10 02:24:54;;;;;;;5.32;4.82;;;;;;;17.27;41.91;99146.38;;;;-47
2021/02/10 02:27:54;;;;;;;5.79;5.13;;;;;;;17.25;41.84;99144.44;;;;-47
2021/02/10 02:30:53;;;;;;;5.83;5.23;;;;;;;17.24;41.83;99138.61;;;;-49
2021/02/10 02:33:54;;;;;;;6.35;5.15;;;;;;;17.23;41.92;99135.40;;;;-50
2021/02/10 02:36:53;;;;;;;6.39;5.38;;;;;;;17.21;41.92;99133.38;;;;-49
2021/02/10 02:39:53;;;;;;;5.77;5.05;;;;;;;17.19;41.93;99130.80;;;;-52
2021/02/10 02:42:54;;;;;;;5.42;4.86;;;;;;;17.18;42.04;99136.38;;;;-52
2021/02/10 02:45:53;;;;;;;5.38;4.84;;;;;;;17.17;41.98;99132.11;;;;-49
2021/02/10 02:48:53;;;;;;;5.97;5.35;;;;;;;17.15;41.88;99131.80;;;;-50
2021/02/10 02:51:54;;;;;;;5.61;5.11;;;;;;;17.13;41.94;99122.56;;;;-47
2021/02/10 02:54:53;;;;;;;5.70;5.10;;;;;;;17.12;41.96;99120.88;;;;-47
2021/02/10 02:57:54;;;;;;;5.75;5.12;;;;;;;17.10;41.98;99117.91;;;;-47
2021/02/10 03:00:54;;;;;;;5.70;5.04;;;;;;;17.11;41.86;99120.97;;;;-50
2021/02/10 03:03:53;;;;;;;6.21;5.29;;;;;;;17.08;41.88;99122.84;;;;-50
2021/02/10 03:06:54;;;;;;;5.75;5.12;;;;;;;17.08;41.79;99121.70;;;;-50
2021/02/10 03:09:54;;;;;;;5.99;4.93;;;;;;;17.06;41.88;99120.67;;;;-52
2021/02/10 03:12:53;;;;;;;5.95;5.17;;;;;;;17.05;41.91;99125.94;;;;-52
2021/02/10 03:15:54;;;;;;;5.93;5.12;;;;;;;17.01;42.06;99117.12;;;;-50
2021/02/10 03:18:54;;;;;;;5.76;5.18;;;;;;;17.01;42.00;99120.28;;;;-50
2021/02/10 03:21:53;;;;;;;5.80;5.05;;;;;;;16.99;42.04;99116.64;;;;-47
2021/02/10 03:24:54;;;;;;;6.04;5.19;;;;;;;16.99;42.07;99116.42;;;;-47
2021/02/10 03:27:53;;;;;;;6.07;5.17;;;;;;;16.98;42.08;99114.24;;;;-50
2021/02/10 03:30:53;;;;;;;5.85;5.21;;;;;;;16.96;41.89;99114.00;;;;-50
2021/02/10 03:33:54;;;;;;;5.63;4.99;;;;;;;16.95;42.08;99119.59;;;;-47
2021/02/10 03:36:53;;;;;;;5.96;5.33;;;;;;;16.94;42.06;99126.23;;;;-50
2021/02/10 03:39:53;;;;;;;5.75;5.15;;;;;;;16.92;41.90;99127.86;;;;-50
2021/02/10 03:42:54;;;;;;;6.48;5.55;;;;;;;16.92;41.92;99131.02;;;;-52
2021/02/10 03:45:53;;;;;;;5.66;5.03;;;;;;;16.90;42.00;99131.27;;;;-52
2021/02/10 03:48:54;;;;;;;5.81;5.21;;;;;;;16.89;41.98;99131.84;;;;-49
2021/02/10 03:51:53;;;;;;;6.40;5.19;;;;;;;16.87;42.08;99135.47;;;;-49
2021/02/10 03:54:53;;;;;;;6.14;5.16;;;;;;;16.86;42.11;99140.02;;;;-49
2021/02/10 03:57:54;;;;;;;5.69;5.03;;;;;;;16.85;42.05;99138.64;;;;-50
2021/02/10 04:00:53;;;;;;;5.56;4.99;;;;;;;16.85;41.99;99140.25;;;;-52
2021/02/10 04:03:54;;;;;;;5.87;5.30;;;;;;;16.83;42.04;99135.03;;;;-52
2021/02/10 04:06:54;;;;;;;5.69;5.09;;;;;;;16.81;42.14;99136.97;;;;-53
2021/02/10 04:09:53;;;;;;;6.07;5.46;;;;;;;16.81;41.99;99142.48;;;;-52
2021/02/10 04:12:54;;;;;;;6.14;5.43;;;;;;;16.80;42.12;99145.77;;;;-52
2021/02/10 04:15:54;;;;;;;5.85;5.17;;;;;;;16.78;42.14;99143.97;;;;-52
2021/02/10 04:18:53;;;;;;;5.86;5.26;;;;;;;16.77;42.14;99144.31;;;;-52
2021/02/10 04:21:54;;;;;;;6.46;5.41;;;;;;;16.75;42.10;99141.25;;;;-52
2021/02/10 04:24:54;;;;;;;6.21;5.53;;;;;;;16.75;42.04;99145.14;;;;-53
2021/02/10 04:27:54;;;;;;;5.75;5.14;;;;;;;16.73;42.07;99144.98;;;;-53
2021/02/10 04:30:55;;;;;;;6.00;5.39;;;;;;;16.72;42.08;99144.57;;;;-52
2021/02/10 04:33:53;;;;;;;5.67;5.03;;;;;;;16.72;42.19;99142.30;;;;-50
2021/02/10 04:36:53;;;;;;;6.53;5.53;;;;;;;16.69;42.20;99141.44;;;;-49
2021/02/10 04:39:54;;;;;;;6.13;5.53;;;;;;;16.67;42.30;99139.41;;;;-50
2021/02/10 04:42:53;;;;;;;5.99;5.39;;;;;;;16.69;42.12;99139.58;;;;-50
2021/02/10 04:45:53;;;;;;;5.81;5.21;;;;;;;16.67;42.13;99140.23;;;;-50
2021/02/10 04:48:54;;;;;;;6.05;5.45;;;;;;;16.66;42.14;99137.55;;;;-50
2021/02/10 04:51:54;;;;;;;5.83;5.23;;;;;;;16.65;42.13;99134.89;;;;-50
2021/02/10 04:54:53;;;;;;;5.85;5.25;;;;;;;16.63;42.23;99134.08;;;;-50
2021/02/10 04:57:54;;;;;;;5.95;5.34;;;;;;;16.63;42.16;99132.39;;;;-47
2021/02/10 05:00:53;;;;;;;6.29;5.33;;;;;;;16.63;42.16;99139.03;;;;-47
2021/02/10 05:03:53;;;;;;;5.78;5.15;;;;;;;16.61;42.29;99135.06;;;;-47
2021/02/10 05:06:54;;;;;;;6.23;5.19;;;;;;;16.60;42.25;99133.95;;;;-52
2021/02/10 05:09:53;;;;;;;6.19;5.43;;;;;;;16.59;42.01;99131.92;;;;-52
2021/02/10 05:12:54;;;;;;;5.82;5.17;;;;;;;16.58;42.13;99132.80;;;;-50
2021/02/10 05:15:53;;;;;;;5.99;5.37;;;;;;;16.57;42.20;99136.22;;;;-50
2021/02/10 05:18:53;;;;;;;6.33;5.19;;;;;;;16.56;42.21;99135.00;;;;-49
2021/02/10 05:21:54;;;;;;;6.10;5.44;;;;;;;16.55;42.23;99139.84;;;;-49
2021/02/10 05:24:53;;;;;;;5.81;5.19;;;;;;;16.55;42.13;99134.27;;;;-49
2021/02/10 05:27:53;;;;;;;5.63;5.04;;;;;;;16.54;42.12;99139.95;;;;-49
2021/02/10 05:30:54;;;;;;;5.79;5.19;;;;;;;16.54;42.13;99144.62;;;;-52
2021/02/10 05:33:53;;;;;;;5.70;5.09;;;;;;;16.53;42.17;99145.44;;;;-52
2021/02/10 05:36:53;;;;;;;6.20;5.37;;;;;;;16.52;42.16;99146.89;;;;-52
2021/02/10 05:39:54;;;;;;;6.14;5.54;;;;;;;16.51;42.17;99150.54;;;;-49
2021/02/10 05:42:53;;;;;;;6.01;5.41;;;;;;;16.50;42.21;99152.55;;;;-49
2021/02/10 05:45:54;;;;;;;5.89;5.29;;;;;;;16.50;42.25;99149.59;;;;-49
2021/02/10 05:48:53;;;;;;;6.03;5.27;;;;;;;16.48;42.11;99153.22;;;;-50
2021/02/10 05:51:53;;;;;;;6.49;5.32;;;;;;;16.47;42.13;99154.02;;;;-49
2021/02/10 05:54:54;;;;;;;6.02;5.41;;;;;;;16.47;42.13;99153.84;;;;-49
2021/02/10 05:57:53;;;;;;;6.15;5.39;;;;;;;16.46;42.12;99154.19;;;;-49
2021/02/10 06:00:53;;;;;;;5.57;4.98;;;;;;;16.46;42.13;99163.41;;;;-49
2021/02/10 06:03:53;;;;;;;10.90;6.37;;;;;;;16.40;40.22;99168.75;;;;-51
2021/02/10 06:06:53;;;;;;;10.67;8.53;;;;;;;16.14;37.99;99169.10;;;;-50
2021/02/10 06:09:54;;;;;;;12.19;8.20;;;;;;;16.07;38.71;99164.67;;;;-54
2021/02/10 06:12:53;;;;;;;11.64;7.70;;;;;;;16.11;39.82;99168.95;;;;-55
2021/02/10 06:15:54;;;;;;;9.81;7.43;;;;;;;16.16;40.17;99166.44;;;;-57
2021/02/10 06:18:54;;;;;;;9.89;7.04;;;;;;;16.20;40.47;99166.61;;;;-54
2021/02/10 06:21:53;;;;;;;9.37;7.07;;;;;;;16.20;40.65;99174.27;;;;-52
2021/02/10 06:24:54;;;;;;;8.71;6.88;;;;;;;16.23;40.93;99175.82;;;;-48
2021/02/10 06:27:53;;;;;;;8.37;6.61;;;;;;;16.29;40.88;99180.16;;;;-52
2021/02/10 06:30:53;;;;;;;10.29;6.49;;;;;;;16.34;40.96;99179.28;;;;-52
2021/02/10 06:33:54;;;;;;;7.48;6.08;;;;;;;16.38;40.95;99184.85;;;;-52
2021/02/10 06:36:54;;;;;;;7.34;6.23;;;;;;;16.42;40.92;99189.29;;;;-52
2021/02/10 06:39:53;;;;;;;6.68;5.87;;;;;;;16.45;40.99;99195.09;;;;-52
2021/02/10 06:42:53;;;;;;;8.47;6.01;;;;;;;16.49;41.22;99197.92;;;;-52
2021/02/10 06:45:53;;;;;;;7.15;6.15;;;;;;;16.51;41.44;99201.63;;;;-52
2021/02/10 06:48:53;;;;;;;7.21;5.92;;;;;;;16.55;41.66;99209.95;;;;-52
2021/02/10 06:51:54;;;;;;;6.64;5.47;;;;;;;16.58;41.70;99209.33;;;;-52
2021/02/10 06:54:53;;;;;;;8.06;5.75;;;;;;;16.61;41.76;99210.20;;;;-52
2021/02/10 06:57:53;;;;;;;6.69;5.62;;;;;;;16.64;41.79;99212.77;;;;-52
2021/02/10 07:00:53;;;;;;;6.44;5.69;;;;;;;16.69;41.88;99217.72;;;;-52
2021/02/10 07:03:53;;;;;;;6.31;5.29;;;;;;;16.72;41.81;99221.48;;;;-52
2021/02/10 07:06:54;;;;;;;7.03;5.18;;;;;;;16.76;41.94;99222.77;;;;-52
2021/02/10 07:09:54;;;;;;;5.93;5.33;;;;;;;16.80;41.95;99228.44;;;;-52
2021/02/10 07:12:53;;;;;;;5.94;5.15;;;;;;;16.84;41.94;99231.44;;;;-52
2021/02/10 07:15:53;;;;;;;5.92;5.05;;;;;;;16.87;42.00;99233.69;;;;-52
2021/02/10 07:18:53;;;;;;;6.35;5.41;;;;;;;16.91;41.97;99237.41;;;;-52
2021/02/10 07:21:53;;;;;;;7.16;5.35;;;;;;;16.93;42.04;99240.91;;;;-52
2021/02/10 07:24:54;;;;;;;6.73;5.16;;;;;;;16.96;41.88;99244.77;;;;-52
2021/02/10 07:27:53;;;;;;;5.75;4.95;;;;;;;16.99;42.04;99251.15;;;;-52
2021/02/10 07:30:53;;;;;;;6.57;5.14;;;;;;;17.00;41.99;99253.59;;;;-53
2021/02/10 07:33:53;;;;;;;6.57;5.35;;;;;;;17.02;42.04;99261.59;;;;-52
2021/02/10 07:36:53;;;;;;;6.33;5.10;;;;;;;17.03;41.98;99268.13;;;;-52
2021/02/10 07:39:53;;;;;;;5.97;5.00;;;;;;;17.05;41.99;99274.04;;;;-52
2021/02/10 07:42:54;;;;;;;6.05;4.99;;;;;;;17.06;41.96;99277.94;;;;-52
2021/02/10 07:45:53;;;;;;;6.22;5.19;;;;;;;17.06;42.02;99279.47;;;;-52
2021/02/10 07:48:53;;;;;;;5.97;5.27;;;;;;;17.06;42.06;99280.27;;;;-52
2021/02/10 07:51:53;;;;;;;5.71;5.11;;;;;;;17.07;41.97;99282.20;;;;-52
2021/02/10 07:54:53;;;;;;;5.79;5.13;;;;;;;17.07;42.01;99286.08;;;;-52
2021/02/10 07:57:54;;;;;;;5.49;4.95;;;;;;;17.07;42.14;99283.82;;;;-52
2021/02/10 08:00:53;;;;;;;6.00;5.05;;;;;;;17.07;42.10;99283.75;;;;-52
2021/02/10 08:03:53;;;;;;;6.27;5.29;;;;;;;17.06;42.18;99282.70;;;;-52
2021/02/10 08:06:53;;;;;;;6.05;5.21;;;;;;;17.06;42.10;99283.99;;;;-52
2021/02/10 08:09:53;;;;;;;6.09;5.24;;;;;;;17.06;41.85;99289.99;;;;-52
2021/02/10 08:12:55;;;;;;;6.19;5.33;;;;;;;17.06;42.14;99291.20;;;;-52
2021/02/10 08:15:53;;;;;;;5.89;4.97;;;;;;;17.05;42.02;99293.37;;;;-51
2021/02/10 08:18:53;;;;;;;5.97;5.35;;;;;;;17.05;41.88;99303.24;;;;-50
2021/02/10 08:21:53;;;;;;;6.11;5.34;;;;;;;17.05;42.13;99304.62;;;;-49
2021/02/10 08:24:53;;;;;;;6.23;5.29;;;;;;;17.05;42.01;99313.61;;;;-49
2021/02/10 08:27:53;;;;;;;5.99;5.11;;;;;;;17.05;42.02;99318.55;;;;-49
2021/02/10 08:30:54;;;;;;;5.86;5.26;;;;;;;17.05;41.90;99323.81;;;;-49
2021/02/10 08:33:53;;;;;;;5.83;5.23;;;;;;;17.05;42.01;99329.15;;;;-49
2021/02/10 08:36:53;;;;;;;6.37;5.50;;;;;;;17.05;42.09;99330.93;;;;-49
2021/02/10 08:39:54;;;;;;;6.13;5.33;;;;;;;17.05;42.01;99334.81;;;;-52
2021/02/10 08:42:53;;;;;;;6.37;5.49;;;;;;;17.05;41.95;99335.88;;;;-52
2021/02/10 08:45:54;;;;;;;6.20;5.23;;;;;;;17.05;41.88;99332.71;;;;-52
2021/02/10 08:48:53;;;;;;;6.11;5.29;;;;;;;17.05;41.96;99333.20;;;;-52
2021/02/10 08:51:53;;;;;;;6.70;5.55;;;;;;;17.05;41.98;99335.78;;;;-52
2021/02/10 08:54:53;;;;;;;6.33;5.30;;;;;;;17.06;41.98;99343.09;;;;-52
2021/02/10 08:57:53;;;;;;;6.59;5.37;;;;;;;17.06;42.03;99348.09;;;;-52
2021/02/10 09:00:54;;;;;;;6.45;5.49;;;;;;;17.08;41.99;99351.72;;;;-49
2021/02/10 09:03:53;;;;;;;6.83;5.54;;;;;;;17.11;42.48;99356.02;;;;-49
2021/02/10 09:06:53;;;;;;;6.09;5.49;;;;;;;17.13;42.65;99360.63;;;;-49
2021/02/10 09:09:54;;;;;;;6.59;5.68;;;;;;;17.17;42.50;99363.94;;;;-51
2021/02/10 09:12:55;;;;;;;7.33;6.03;;;;;;;17.21;42.21;99369.36;;;;-51
2021/02/10 09:15:53;;;;;;;6.01;5.22;;;;;;;17.27;42.74;99378.09;;;;-50
2021/02/10 09:18:53;;;;;;;6.84;5.79;;;;;;;17.34;42.59;99383.48;;;;-50
2021/02/10 09:21:53;;;;;;;6.61;5.55;;;;;;;17.41;42.71;99380.88;;;;-54
2021/02/10 09:24:53;;;;;;;6.39;5.09;;;;;;;17.48;42.77;99385.88;;;;-52
2021/02/10 09:27:53;;;;;;;6.31;5.46;;;;;;;17.54;42.82;99385.63;;;;-52
2021/02/10 09:30:53;;;;;;;6.07;5.31;;;;;;;17.61;42.84;99393.62;;;;-54
2021/02/10 09:33:53;;;;;;;7.48;5.27;;;;;;;17.68;42.73;99401.40;;;;-49
2021/02/10 09:36:53;;;;;;;6.09;5.22;;;;;;;17.74;42.82;99403.89;;;;-56
2021/02/10 09:39:53;;;;;;;7.37;5.30;;;;;;;17.80;42.79;99409.19;;;;-51
2021/02/10 09:42:53;;;;;;;7.28;5.17;;;;;;;17.85;42.91;99411.00;;;;-55
2021/02/10 09:45:53;;;;;;;6.41;5.31;;;;;;;17.90;42.81;99413.25;;;;-55
2021/02/10 09:48:53;;;;;;;6.23;5.35;;;;;;;17.92;42.78;99416.56;;;;-52
2021/02/10 09:51:53;;;;;;;7.85;5.38;;;;;;;17.95;42.76;99414.94;;;;-53
2021/02/10 09:54:53;;;;;;;5.98;5.29;;;;;;;17.99;42.68;99417.67;;;;-53
2021/02/10 09:57:53;;;;;;;6.55;5.30;;;;;;;18.03;42.67;99421.55;;;;-51
2021/02/10 10:00:53;;;;;;;6.37;5.36;;;;;;;18.07;42.72;99429.45;;;;-53
2021/02/10 10:03:53;;;;;;;6.29;5.23;;;;;;;18.11;42.71;99436.02;;;;-50
2021/02/10 10:06:53;;;;;;;6.67;5.33;;;;;;;18.14;42.67;99438.59;;;;-53
2021/02/10 10:09:53;;;;;;;6.22;5.21;;;;;;;18.19;42.64;99442.22;;;;-57
2021/02/10 10:12:53;;;;;;;6.09;5.19;;;;;;;18.23;42.58;99446.99;;;;-57
2021/02/10 10:15:53;;;;;;;5.59;4.85;;;;;;;18.26;42.51;99449.47;;;;-51
2021/02/10 10:18:53;;;;;;;6.28;5.26;;;;;;;18.30;42.54;99447.83;;;;-52
2021/02/10 10:21:53;;;;;;;5.75;5.15;;;;;;;18.35;42.53;99463.39;;;;-56
2021/02/10 10:24:53;;;;;;;6.33;5.36;;;;;;;18.38;42.51;99468.89;;;;-53
2021/02/10 10:27:53;;;;;;;6.12;5.23;;;;;;;18.43;42.38;99474.45;;;;-51
2021/02/10 10:30:53;;;;;;;6.42;5.48;;;;;;;18.45;42.23;99484.59;;;;-53
2021/02/10 10:33:53;;;;;;;7.99;5.37;;;;;;;18.48;42.15;99487.58;;;;-51
2021/02/10 10:36:54;;;;;;;6.22;5.33;;;;;;;18.51;42.00;99495.83;;;;-51
2021/02/10 10:39:53;;;;;;;6.00;5.05;;;;;;;18.51;42.01;99492.36;;;;-51
2021/02/10 10:42:53;;;;;;;5.85;5.00;;;;;;;18.53;41.94;99494.62;;;;-51
2021/02/10 10:45:53;;;;;;;6.21;5.27;;;;;;;18.53;41.81;99500.20;;;;-49
2021/02/10 10:48:53;;;;;;;6.54;5.15;;;;;;;18.60;41.73;99499.44;;;;-57
2021/02/10 10:51:53;;;;;;;7.29;5.31;;;;;;;18.60;41.76;99507.88;;;;-58
2021/02/10 10:54:53;;;;;;;8.37;5.39;;;;;;;18.60;41.84;99512.75;;;;-57
2021/02/10 10:57:53;;;;;;;6.69;5.25;;;;;;;18.61;41.63;99515.57;;;;-57
2021/02/10 11:00:53;;;;;;;5.59;4.96;;;;;;;18.62;41.48;99521.34;;;;-57
2021/02/10 11:03:53;;;;;;;6.96;5.31;;;;;;;18.61;41.41;99526.44;;;;-57
2021/02/10 11:06:53;;;;;;;7.58;5.54;;;;;;;18.62;41.41;99529.22;;;;-57
2021/02/10 11:09:53;;;;;;;6.47;5.40;;;;;;;18.62;41.31;99531.25;;;;-57
2021/02/10 11:12:53;;;;;;;5.91;5.03;;;;;;;18.63;41.21;99537.14;;;;-57
2021/02/10 11:15:53;;;;;;;6.55;5.21;;;;;;;18.63;41.17;99535.45;;;;-52
2021/02/10 11:18:53;;;;;;;6.27;4.99;;;;;;;18.61;41.22;99544.94;;;;-58
2021/02/10 11:21:53;;;;;;;6.46;5.07;;;;;;;18.60;41.11;99545.84;;;;-52
2021/02/10 11:24:53;;;;;;;6.56;5.37;;;;;;;18.60;41.04;99548.62;;;;-57
2021/02/10 11:27:53;;;;;;;6.68;5.16;;;;;;;18.59;41.11;99551.86;;;;-57
2021/02/10 11:30:53;;;;;;;6.17;5.12;;;;;;;18.58;40.96;99549.44;;;;-53
2021/02/10 11:33:53;;;;;;;6.25;5.26;;;;;;;18.57;40.87;99554.86;;;;-53
2021/02/10 11:36:53;;;;;;;6.07;5.24;;;;;;;18.57;40.81;99556.81;;;;-53
2021/02/10 11:39:53;;;;;;;6.19;5.29;;;;;;;18.56;40.95;99559.17;;;;-57
2021/02/10 11:42:53;;;;;;;6.02;5.37;;;;;;;18.56;40.79;99562.59;;;;-57
2021/02/10 11:45:53;;;;;;;5.85;5.17;;;;;;;18.57;40.74;99564.36;;;;-57
2021/02/10 11:48:54;;;;;;;5.99;5.25;;;;;;;18.56;40.78;99569.31;;;;-57
2021/02/10 11:51:53;;;;;;;6.45;5.49;;;;;;;18.57;40.79;99569.06;;;;-56
2021/02/10 11:54:53;;;;;;;6.73;5.38;;;;;;;18.55;40.84;99574.67;;;;-58
2021/02/10 11:57:53;;;;;;;6.15;5.09;;;;;;;18.57;40.79;99579.20;;;;-57
2021/02/10 12:00:54;;;;;;;6.22;5.31;;;;;;;18.56;40.90;99577.42;;;;-53
2021/02/10 12:03:53;;;;;;;6.15;5.51;;;;;;;18.57;40.81;99583.58;;;;-53
2021/02/10 12:06:53;;;;;;;5.87;5.25;;;;;;;18.58;40.81;99585.47;;;;-54
2021/02/10 12:09:53;;;;;;;6.04;5.19;;;;;;;18.58;40.68;99592.84;;;;-52
2021/02/10 12:12:53;;;;;;;6.13;5.28;;;;;;;18.58;40.81;99600.95;;;;-52
2021/02/10 12:15:53;;;;;;;6.79;5.37;;;;;;;18.59;40.64;99608.66;;;;-52
2021/02/10 12:18:53;;;;;;;5.61;5.05;;;;;;;18.60;40.75;99616.45;;;;-52
2021/02/10 12:21:53;;;;;;;5.88;5.07;;;;;;;18.59;40.89;99614.03;;;;-53
2021/02/10 12:24:53;;;;;;;5.90;5.30;;;;;;;18.61;40.82;99615.54;;;;-54
2021/02/10 12:27:53;;;;;;;6.43;5.61;;;;;;;18.61;40.75;99615.70;;;;-54
2021/02/10 12:30:53;;;;;;;6.29;5.19;;;;;;;18.61;40.80;99620.33;;;;-57
2021/02/10 12:33:53;;;;;;;6.57;5.39;;;;;;;18.63;40.87;99631.03;;;;-57
2021/02/10 12:36:53;;;;;;;6.13;5.33;;;;;;;18.64;40.62;99637.29;;;;-52
2021/02/10 12:39:54;;;;;;;5.66;5.04;;;;;;;18.64;40.61;99640.28;;;;-52
2021/02/10 12:42:53;;;;;;;6.17;5.38;;;;;;;18.65;40.86;99644.90;;;;-52
2021/02/10 12:45:53;;;;;;;5.95;5.35;;;;;;;18.65;40.70;99649.20;;;;-52
2021/02/10 12:48:53;;;;;;;6.87;5.43;;;;;;;18.66;40.75;99656.34;;;;-52
2021/02/10 12:51:53;;;;;;;6.23;5.23;;;;;;;18.65;40.82;99656.50;;;;-57
2021/02/10 12:54:53;;;;;;;6.88;5.56;;;;;;;18.67;40.85;99659.27;;;;-57
2021/02/10 12:57:53;;;;;;;6.32;5.47;;;;;;;18.69;40.56;99666.97;;;;-57
2021/02/10 13:00:53;;;;;;;6.03;5.25;;;;;;;18.68;40.51;99670.07;;;;-57
2021/02/10 13:03:54;;;;;;;6.43;5.32;;;;;;;18.69;40.72;99672.08;;;;-48
2021/02/10 13:06:53;;;;;;;6.90;5.32;;;;;;;18.72;40.66;99678.17;;;;-48
2021/02/10 13:09:53;;;;;;;5.88;5.23;;;;;;;18.73;40.87;99680.58;;;;-49
2021/02/10 13:12:53;;;;;;;6.02;5.41;;;;;;;18.75;40.90;99683.75;;;;-53
2021/02/10 13:15:53;;;;;;;7.39;5.59;;;;;;;18.78;41.07;99686.03;;;;-52
2021/02/10 13:18:53;;;;;;;6.30;5.27;;;;;;;18.81;40.88;99695.38;;;;-52
2021/02/10 13:21:53;;;;;;;7.40;5.91;;;;;;;18.83;40.80;99693.91;;;;-54
2021/02/10 13:24:54;;;;;;;6.12;5.33;;;;;;;18.85;40.67;99696.67;;;;-48
2021/02/10 13:27:54;;;;;;;11.20;5.79;;;;;;;18.85;40.68;99698.61;;;;-52
2021/02/10 13:30:54;;;;;;;7.87;5.63;;;;;;;18.86;40.75;99703.05;;;;-51
2021/02/10 13:33:53;;;;;;;6.71;5.81;;;;;;;18.87;40.69;99703.87;;;;-54
2021/02/10 13:36:53;;;;;;;7.44;5.43;;;;;;;18.90;40.79;99709.14;;;;-51
2021/02/10 13:39:53;;;;;;;6.71;5.49;;;;;;;18.91;40.90;99711.98;;;;-53
2021/02/10 13:42:53;;;;;;;6.67;5.66;;;;;;;18.93;41.09;99717.17;;;;-48
2021/02/10 13:45:53;;;;;;;8.61;5.75;;;;;;;18.97;41.21;99723.74;;;;-57
2021/02/10 13:48:53;;;;;;;9.29;5.71;;;;;;;18.96;40.80;99729.17;;;;-57
2021/02/10 13:51:53;;;;;;;6.80;5.73;;;;;;;18.93;40.83;99735.84;;;;-57
2021/02/10 13:54:53;;;;;;;6.75;5.75;;;;;;;18.93;40.52;99738.53;;;;-57
2021/02/10 13:57:53;;;;;;;8.93;5.75;;;;;;;18.93;40.45;99744.63;;;;-57
2021/02/10 14:00:53;;;;;;;6.57;5.53;;;;;;;18.90;40.64;99744.69;;;;-57
2021/02/10 14:03:53;;;;;;;7.41;6.33;;;;;;;18.88;40.39;99752.33;;;;-58
2021/02/10 14:06:53;;;;;;;12.33;6.22;;;;;;;18.88;40.22;99764.19;;;;-48
2021/02/10 14:09:53;;;;;;;13.62;6.53;;;;;;;18.90;40.34;99772.95;;;;-54
2021/02/10 14:15:53;;;;;;;8.05;5.90;;;;;;;18.93;40.62;99786.91;;;;-61
2021/02/10 14:18:53;;;;;;;12.00;6.49;;;;;;;18.93;40.60;99793.24;;;;-53
2021/02/10 14:21:54;;;;;;;11.13;6.33;;;;;;;18.92;40.40;99798.44;;;;-54
2021/02/10 14:24:53;;;;;;;10.65;5.97;;;;;;;18.90;40.33;99798.27;;;;-54
2021/02/10 14:27:53;;;;;;;10.23;6.29;;;;;;;18.89;40.28;99802.02;;;;-51
2021/02/10 14:30:53;;;;;;;6.77;5.53;;;;;;;18.89;40.58;99808.67;;;;-51
2021/02/10 14:33:53;;;;;;;9.52;5.93;;;;;;;18.90;40.52;99816.06;;;;-51
2021/02/10 14:36:53;;;;;;;8.22;6.24;;;;;;;18.87;40.31;99822.97;;;;-50
2021/02/10 14:39:53;;;;;;;8.36;6.25;;;;;;;18.87;40.56;99821.84;;;;-45
2021/02/10 14:42:53;;;;;;;10.59;6.47;;;;;;;18.87;40.48;99823.30;;;;-50
2021/02/10 14:45:53;;;;;;;11.87;6.60;;;;;;;18.89;40.32;99830.92;;;;-54
2021/02/10 14:48:53;;;;;;;8.71;6.62;;;;;;;18.93;40.42;99843.84;;;;-51
2021/02/10 14:51:53;;;;;;;9.80;6.50;;;;;;;18.94;40.57;99849.90;;;;-53
2021/02/10 14:54:53;;;;;;;7.51;6.09;;;;;;;18.96;40.66;99853.55;;;;-54
2021/02/10 14:57:53;;;;;;;8.44;6.26;;;;;;;18.99;40.72;99861.53;;;;-50
2021/02/10 15:00:53;;;;;;;8.73;6.17;;;;;;;19.00;40.72;99868.73;;;;-52
2021/02/10 15:03:53;;;;;;;7.99;6.29;;;;;;;19.02;40.75;99874.33;;;;-49
2021/02/10 15:06:53;;;;;;;9.83;6.38;;;;;;;19.04;40.55;99880.27;;;;-46
2021/02/10 15:09:53;;;;;;;10.49;6.47;;;;;;;19.04;40.58;99884.23;;;;-53
2021/02/10 15:12:53;;;;;;;9.11;5.91;;;;;;;19.07;40.79;99893.92;;;;-50
2021/02/10 15:15:53;;;;;;;8.13;5.87;;;;;;;19.09;40.66;99898.93;;;;-46
2021/02/10 15:18:53;;;;;;;8.86;5.95;;;;;;;19.11;40.83;99902.09;;;;-53
2021/02/10 15:21:53;;;;;;;7.82;6.15;;;;;;;19.11;40.83;99905.94;;;;-51
2021/02/10 15:24:53;;;;;;;7.48;5.97;;;;;;;19.13;40.94;99911.11;;;;-50
2021/02/10 15:27:53;;;;;;;8.02;5.66;;;;;;;19.13;40.91;99920.61;;;;-51
2021/02/10 15:30:53;;;;;;;8.27;6.07;;;;;;;19.15;40.95;99930.52;;;;-57
2021/02/10 15:33:53;;;;;;;7.35;5.91;;;;;;;19.15;40.99;99937.61;;;;-57
2021/02/10 15:36:53;;;;;;;6.71;5.69;;;;;;;19.15;40.93;99946.22;;;;-50
2021/02/10 15:39:53;;;;;;;8.17;6.27;;;;;;;19.16;40.89;99946.45;;;;-51
2021/02/10 15:42:53;;;;;;;7.59;5.85;;;;;;;19.17;41.01;99947.58;;;;-48
2021/02/10 15:45:55;;;;;;;7.14;5.93;;;;;;;19.17;40.96;99949.30;;;;-54
2021/02/10 15:48:53;;;;;;;7.38;5.89;;;;;;;19.20;41.03;99956.94;;;;-60
2021/02/10 15:51:53;;;;;;;7.53;5.57;;;;;;;19.20;41.00;99961.88;;;;-55
2021/02/10 15:54:53;;;;;;;7.79;5.69;;;;;;;19.22;40.96;99969.52;;;;-54
2021/02/10 15:57:53;;;;;;;8.22;5.77;;;;;;;19.22;41.02;99967.16;;;;-51
2021/02/10 16:00:53;;;;;;;7.92;5.90;;;;;;;19.24;40.99;99973.91;;;;-53
2021/02/10 16:03:53;;;;;;;6.66;5.61;;;;;;;19.23;41.01;99976.00;;;;-54
2021/02/10 16:06:54;;;;;;;6.45;5.60;;;;;;;19.26;40.95;99982.73;;;;-50
2021/02/10 16:09:53;;;;;;;6.61;5.30;;;;;;;19.25;40.78;99982.27;;;;-51
2021/02/10 16:12:53;;;;;;;8.55;5.75;;;;;;;19.23;40.75;99988.92;;;;-54
2021/02/10 16:15:53;;;;;;;8.48;5.64;;;;;;;19.21;40.76;99996.95;;;;-53
2021/02/10 16:18:53;;;;;;;7.74;5.43;;;;;;;19.21;40.59;100003.78;;;;-52
2021/02/10 16:21:53;;;;;;;7.63;5.76;;;;;;;19.19;40.56;100012.31;;;;-58
2021/02/10 16:24:53;;;;;;;7.09;5.54;;;;;;;19.18;40.39;100020.04;;;;-59
2021/02/10 16:27:53;;;;;;;6.90;5.32;;;;;;;19.18;40.27;100027.27;;;;-53
2021/02/10 16:30:55;;;;;;;7.03;5.69;;;;;;;19.18;40.30;100027.36;;;;-48
2021/02/10 16:33:53;;;;;;;7.00;5.63;;;;;;;19.18;40.53;100041.23;;;;-53
2021/02/10 16:36:53;;;;;;;7.13;5.49;;;;;;;19.20;40.73;100043.27;;;;-49
2021/02/10 16:39:53;;;;;;;7.07;5.59;;;;;;;19.22;40.78;100052.38;;;;-47
2021/02/10 16:42:53;;;;;;;7.09;5.52;;;;;;;19.22;40.78;100055.62;;;;-48
2021/02/10 16:45:53;;;;;;;6.50;5.24;;;;;;;19.24;40.69;100062.38;;;;-50
2021/02/10 16:48:53;;;;;;;6.92;5.45;;;;;;;19.23;40.63;100073.31;;;;-53
2021/02/10 16:51:53;;;;;;;7.25;5.70;;;;;;;19.22;40.50;100080.97;;;;-59
2021/02/10 16:54:54;;;;;;;6.13;5.29;;;;;;;19.21;40.52;100092.08;;;;-60
2021/02/10 16:57:53;;;;;;;7.70;5.26;;;;;;;19.21;40.46;100101.19;;;;-52